createdAt,value
2017-12-29T00:01:53.781Z,3.95
2017-12-29T00:04:22.885Z,4.68
2017-12-29T00:06:52.351Z,4.40
2017-12-29T00:09:20.719Z,4.15
2017-12-29T00:11:49.090Z,3.87
2017-12-29T00:14:17.476Z,3.55
2017-12-29T00:16:46.021Z,4.20
2017-12-29T00:19:14.687Z,4.35
2017-12-29T00:21:43.277Z,4.12
2017-12-29T00:24:11.647Z,3.28
2017-12-29T00:26:40.010Z,2.55
2017-12-29T00:29:08.394Z,2.90
2017-12-29T00:31:38.151Z,3.20
2017-12-29T00:34:06.604Z,3.55
2017-12-29T00:36:34.958Z,3.35
2017-12-29T00:39:05.431Z,3.00
2017-12-29T00:41:34.320Z,3.40
2017-12-29T00:44:03.096Z,3.40
2017-12-29T00:46:32.270Z,3.83
2017-12-29T00:49:02.746Z,4.90
2017-12-29T00:51:31.109Z,3.33
2017-12-29T00:53:59.467Z,3.30
2017-12-29T00:56:27.809Z,5.00
2017-12-29T00:58:56.168Z,2.80
2017-12-29T01:01:24.544Z,3.25
2017-12-29T01:03:52.871Z,5.12
2017-12-29T01:06:21.228Z,3.25
2017-12-29T01:08:49.634Z,3.80
2017-12-29T01:11:17.947Z,3.67
2017-12-29T01:13:46.259Z,3.85
2017-12-29T01:16:14.653Z,4.05
2017-12-29T01:18:42.980Z,4.07
2017-12-29T01:21:11.295Z,4.10
2017-12-29T01:23:40.013Z,5.78
2017-12-29T01:26:08.484Z,3.50
2017-12-29T01:28:36.798Z,3.78
2017-12-29T01:31:05.792Z,3.45
2017-12-29T01:33:34.294Z,3.40
2017-12-29T01:36:04.512Z,3.65
2017-12-29T01:38:32.915Z,3.53
2017-12-29T01:41:01.836Z,3.30
2017-12-29T01:43:30.297Z,3.42
2017-12-29T01:45:58.692Z,3.30
2017-12-29T01:48:27.011Z,2.78
2017-12-29T01:50:55.335Z,3.25
2017-12-29T01:53:23.696Z,3.33
2017-12-29T01:55:52.091Z,3.47
2017-12-29T01:58:20.415Z,4.15
2017-12-29T02:00:48.839Z,3.70
2017-12-29T02:03:17.548Z,4.45
2017-12-29T02:05:45.870Z,3.80
2017-12-29T02:08:14.270Z,3.83
2017-12-29T02:10:42.595Z,4.22
2017-12-29T02:13:10.943Z,4.70
2017-12-29T02:15:40.826Z,3.47
2017-12-29T02:18:10.126Z,4.80
2017-12-29T02:20:38.722Z,3.72
2017-12-29T02:23:08.330Z,4.05
2017-12-29T02:25:36.698Z,4.12
2017-12-29T02:28:05.019Z,2.95
2017-12-29T02:30:33.408Z,4.47
2017-12-29T02:33:02.299Z,4.35
2017-12-29T02:35:30.663Z,3.30
2017-12-29T02:38:00.535Z,3.62
2017-12-29T02:40:28.884Z,4.05
2017-12-29T02:42:57.208Z,4.87
2017-12-29T02:45:25.607Z,6.62
2017-12-29T02:47:53.940Z,5.57
2017-12-29T02:50:22.247Z,3.70
2017-12-29T02:52:51.316Z,6.15
2017-12-29T02:55:19.648Z,7.82
2017-12-29T02:57:47.740Z,5.80
2017-12-29T03:00:16.132Z,4.90
2017-12-29T03:02:44.468Z,5.00
2017-12-29T03:05:12.796Z,6.68
2017-12-29T03:07:41.189Z,6.00
2017-12-29T03:10:10.030Z,3.90
2017-12-29T03:12:38.346Z,4.15
2017-12-29T03:15:06.721Z,4.30
2017-12-29T03:17:35.047Z,4.87
2017-12-29T03:20:04.659Z,3.62
2017-12-29T03:22:33.028Z,4.57
2017-12-29T03:25:01.351Z,4.12
2017-12-29T03:27:29.671Z,3.10
2017-12-29T03:29:58.050Z,5.70
2017-12-29T03:32:26.368Z,3.50
2017-12-29T03:34:54.685Z,4.65
2017-12-29T03:37:23.088Z,4.53
2017-12-29T03:39:51.407Z,4.55
2017-12-29T03:42:20.198Z,4.62
2017-12-29T03:44:52.590Z,4.20
2017-12-29T03:47:22.360Z,4.10
2017-12-29T03:49:50.677Z,4.00
2017-12-29T03:52:20.294Z,4.18
2017-12-29T03:54:48.644Z,4.20
2017-12-29T03:57:16.968Z,4.40
2017-12-29T03:59:45.326Z,4.07
2017-12-29T04:02:13.643Z,4.93
2017-12-29T04:04:42.478Z,4.30
2017-12-29T04:07:12.404Z,4.43
2017-12-29T04:09:41.440Z,3.50
2017-12-29T04:12:10.642Z,3.87
2017-12-29T04:14:39.694Z,4.82
2017-12-29T04:17:08.901Z,4.00
2017-12-29T04:19:37.888Z,3.08
2017-12-29T04:22:06.263Z,4.15
2017-12-29T04:24:34.596Z,3.45
2017-12-29T04:27:03.515Z,2.80
2017-12-29T04:29:32.632Z,3.10
2017-12-29T04:32:02.069Z,3.55
2017-12-29T04:34:30.407Z,3.15
2017-12-29T04:36:59.913Z,3.80
2017-12-29T04:39:29.022Z,4.20
2017-12-29T04:41:57.429Z,4.00
2017-12-29T04:44:27.148Z,3.80
2017-12-29T04:46:56.291Z,3.80
2017-12-29T04:49:25.438Z,3.92
2017-12-29T04:51:53.849Z,3.58
2017-12-29T04:54:22.177Z,3.08
2017-12-29T04:56:50.484Z,3.00
2017-12-29T04:59:19.253Z,3.45
2017-12-29T05:01:47.964Z,3.33
2017-12-29T05:04:16.348Z,2.80
2017-12-29T05:06:45.512Z,3.33
2017-12-29T05:09:13.872Z,3.28
2017-12-29T05:11:42.287Z,2.83
2017-12-29T05:14:10.651Z,2.42
2017-12-29T05:16:38.965Z,2.80
2017-12-29T05:19:07.587Z,2.50
2017-12-29T05:21:37.232Z,2.55
2017-12-29T05:24:05.568Z,3.42
2017-12-29T05:26:33.998Z,2.53
2017-12-29T05:29:02.314Z,3.22
2017-12-29T05:31:30.715Z,2.60
2017-12-29T05:33:59.133Z,2.53
2017-12-29T05:36:27.468Z,3.00
2017-12-29T05:38:55.800Z,2.35
2017-12-29T05:41:24.155Z,2.72
2017-12-29T05:43:52.471Z,3.42
2017-12-29T05:46:20.822Z,3.00
2017-12-29T05:48:49.374Z,4.50
2017-12-29T05:51:18.196Z,4.15
2017-12-29T05:53:46.703Z,4.30
2017-12-29T05:56:15.369Z,2.83
2017-12-29T05:58:43.935Z,4.10
2017-12-29T06:01:12.248Z,3.25
2017-12-29T06:03:40.604Z,2.95
2017-12-29T06:06:08.928Z,3.65
2017-12-29T06:08:37.231Z,2.55
2017-12-29T06:11:05.751Z,3.28
2017-12-29T06:13:34.055Z,2.62
2017-12-29T06:16:02.497Z,2.20
2017-12-29T06:18:30.870Z,2.33
2017-12-29T06:20:59.372Z,2.20
2017-12-29T06:23:28.248Z,2.30
2017-12-29T06:25:56.631Z,2.42
2017-12-29T06:28:24.940Z,2.25
2017-12-29T06:30:53.676Z,2.20
2017-12-29T06:33:22.050Z,2.40
2017-12-29T06:35:50.380Z,2.25
2017-12-29T06:38:18.729Z,2.47
2017-12-29T06:40:47.372Z,3.45
2017-12-29T06:43:15.687Z,4.57
2017-12-29T06:45:44.013Z,3.42
2017-12-29T06:48:13.151Z,3.25
2017-12-29T06:50:41.901Z,3.25
2017-12-29T06:53:10.216Z,5.15
2017-12-29T06:55:38.591Z,8.25
2017-12-29T06:58:06.904Z,7.68
2017-12-29T07:00:35.235Z,5.45
2017-12-29T07:03:04.371Z,2.65
2017-12-29T07:05:32.679Z,2.60
2017-12-29T07:08:01.000Z,3.87
2017-12-29T07:10:29.767Z,4.15
2017-12-29T07:12:58.694Z,3.40
2017-12-29T07:15:27.031Z,3.92
2017-12-29T07:17:55.407Z,2.40
2017-12-29T07:20:23.720Z,2.60
2017-12-29T07:22:52.384Z,1.80
2017-12-29T07:25:20.800Z,1.50
2017-12-29T07:27:49.128Z,3.05
2017-12-29T07:30:18.259Z,1.95
2017-12-29T07:32:46.744Z,2.53
2017-12-29T07:35:15.068Z,1.87
2017-12-29T07:37:43.384Z,1.95
2017-12-29T07:40:11.772Z,1.70
2017-12-29T07:42:40.684Z,2.20
2017-12-29T07:45:09.617Z,2.17
2017-12-29T07:47:37.976Z,2.60
2017-12-29T07:50:06.923Z,2.50
2017-12-29T07:52:35.675Z,2.40
2017-12-29T07:55:05.007Z,3.70
2017-12-29T07:57:34.211Z,3.60
2017-12-29T08:00:02.554Z,4.45
2017-12-29T08:02:31.622Z,3.75
2017-12-29T08:04:59.951Z,3.12
2017-12-29T08:07:28.960Z,3.78
2017-12-29T08:09:57.349Z,4.47
2017-12-29T08:12:25.680Z,5.30
2017-12-29T08:14:54.007Z,3.95
2017-12-29T08:17:22.884Z,4.75
2017-12-29T08:19:51.218Z,8.27
2017-12-29T08:22:19.541Z,4.50
2017-12-29T08:24:47.927Z,5.68
2017-12-29T08:27:16.250Z,3.87
2017-12-29T08:29:44.573Z,3.17
2017-12-29T08:32:12.977Z,3.83
2017-12-29T08:34:41.287Z,2.95
2017-12-29T08:37:09.605Z,3.60
2017-12-29T08:39:38.078Z,3.22
2017-12-29T08:42:06.415Z,4.50
2017-12-29T08:44:34.741Z,2.40
2017-12-29T08:47:04.052Z,2.90
2017-12-29T08:49:32.366Z,2.35
2017-12-29T08:52:00.677Z,2.95
2017-12-29T08:54:29.176Z,3.22
2017-12-29T08:56:57.703Z,4.35
2017-12-29T08:59:26.021Z,4.43
2017-12-29T09:01:54.408Z,3.05
2017-12-29T09:04:22.728Z,2.95
2017-12-29T09:06:51.183Z,3.17
2017-12-29T09:09:20.119Z,2.15
2017-12-29T09:11:48.446Z,3.12
2017-12-29T09:14:16.979Z,2.33
2017-12-29T09:16:45.671Z,2.28
2017-12-29T09:19:14.096Z,3.00
2017-12-29T09:21:43.179Z,2.42
2017-12-29T09:24:12.029Z,2.62
2017-12-29T09:26:40.512Z,2.55
2017-12-29T09:29:09.608Z,2.70
2017-12-29T09:31:38.041Z,3.17
2017-12-29T09:34:07.229Z,2.90
2017-12-29T09:36:36.364Z,2.83
2017-12-29T09:39:06.316Z,3.90
2017-12-29T09:41:39.952Z,3.35
2017-12-29T09:44:08.832Z,2.90
2017-12-29T09:46:37.908Z,2.62
2017-12-29T09:49:07.256Z,2.12
2017-12-29T09:51:35.612Z,3.28
2017-12-29T09:54:05.432Z,2.30
2017-12-29T09:56:35.115Z,2.50
2017-12-29T09:59:04.728Z,2.83
2017-12-29T10:01:33.873Z,2.10
2017-12-29T10:04:12.448Z,2.30
2017-12-29T10:06:42.116Z,2.58
2017-12-29T10:09:11.057Z,2.80
2017-12-29T10:11:40.251Z,2.00
2017-12-29T10:14:10.100Z,2.80
2017-12-29T10:16:38.892Z,2.20
2017-12-29T10:19:08.248Z,2.50
2017-12-29T10:21:37.348Z,2.33
2017-12-29T10:24:07.907Z,1.98
2017-12-29T10:26:37.308Z,2.33
2017-12-29T10:29:06.416Z,2.97
2017-12-29T10:31:35.538Z,2.33
2017-12-29T10:34:05.224Z,2.50
2017-12-29T10:36:34.350Z,2.60
2017-12-29T10:39:05.238Z,3.00
2017-12-29T10:41:33.979Z,2.80
2017-12-29T10:44:02.893Z,2.80
2017-12-29T10:46:32.412Z,2.78
2017-12-29T10:49:01.552Z,3.28
2017-12-29T10:51:29.915Z,2.95
2017-12-29T10:53:59.249Z,2.70
2017-12-29T10:56:27.684Z,3.10
2017-12-29T10:58:56.332Z,3.28
2017-12-29T11:01:24.648Z,4.43
2017-12-29T11:03:53.006Z,3.30
2017-12-29T11:06:21.479Z,2.30
2017-12-29T11:08:49.796Z,2.93
2017-12-29T11:11:18.243Z,2.40
2017-12-29T11:13:46.564Z,2.40
2017-12-29T11:16:14.895Z,2.00
2017-12-29T11:18:43.361Z,1.70
2017-12-29T11:21:11.688Z,2.30
2017-12-29T11:23:40.007Z,1.50
2017-12-29T11:26:08.426Z,2.90
2017-12-29T11:28:36.736Z,1.77
2017-12-29T11:31:05.041Z,2.60
2017-12-29T11:33:33.420Z,2.50
2017-12-29T11:36:01.741Z,2.13
2017-12-29T11:38:30.099Z,2.30
2017-12-29T11:40:59.092Z,2.60
2017-12-29T11:43:27.421Z,2.00
2017-12-29T11:45:57.008Z,2.80
2017-12-29T11:48:26.647Z,2.40
2017-12-29T11:50:55.903Z,2.80
2017-12-29T11:53:24.471Z,2.53
2017-12-29T11:55:53.040Z,3.05
2017-12-29T11:58:21.875Z,3.60
2017-12-29T12:00:51.280Z,1.97
2017-12-29T12:03:20.551Z,2.10
2017-12-29T12:05:49.156Z,2.60
2017-12-29T12:08:19.459Z,2.20
2017-12-29T12:10:50.848Z,2.97
2017-12-29T12:13:20.818Z,1.93
2017-12-29T12:15:50.033Z,2.43
2017-12-29T12:18:19.080Z,3.47
2017-12-29T12:20:47.492Z,3.67
2017-12-29T12:23:15.971Z,2.67
2017-12-29T12:25:44.300Z,2.53
2017-12-29T12:28:12.670Z,3.67
2017-12-29T12:30:41.011Z,3.23
2017-12-29T12:33:09.356Z,2.60
2017-12-29T12:35:37.716Z,4.27
2017-12-29T12:38:06.047Z,2.80
2017-12-29T12:40:34.360Z,2.43
2017-12-29T12:43:02.759Z,4.37
2017-12-29T12:45:31.160Z,4.10
2017-12-29T12:47:59.896Z,3.57
2017-12-29T12:50:28.460Z,4.27
2017-12-29T12:52:57.444Z,2.90
2017-12-29T12:55:26.643Z,3.87
2017-12-29T12:57:55.580Z,3.90
2017-12-29T13:00:24.657Z,3.33
2017-12-29T13:02:53.943Z,4.33
2017-12-29T13:05:23.027Z,3.37
2017-12-29T13:07:51.943Z,3.53
2017-12-29T13:10:20.404Z,3.97
2017-12-29T13:12:49.073Z,3.63
2017-12-29T13:15:18.983Z,3.50
2017-12-29T13:17:47.587Z,4.80
2017-12-29T13:20:16.759Z,3.50
2017-12-29T13:22:45.535Z,2.63
2017-12-29T13:25:14.163Z,2.73
2017-12-29T13:27:43.248Z,2.50
2017-12-29T13:30:12.001Z,2.30
2017-12-29T13:32:40.928Z,2.80
2017-12-29T13:35:09.711Z,2.20
2017-12-29T13:37:38.460Z,2.10
2017-12-29T13:40:07.283Z,2.13
2017-12-29T13:42:36.003Z,2.23
2017-12-29T13:45:05.118Z,2.40
2017-12-29T13:47:33.548Z,2.17
2017-12-29T13:50:02.548Z,2.03
2017-12-29T13:52:31.676Z,1.70
2017-12-29T13:55:00.232Z,1.87
2017-12-29T13:57:28.931Z,1.90
2017-12-29T13:59:57.663Z,2.00
2017-12-29T14:02:26.479Z,2.30
2017-12-29T14:04:55.483Z,4.57
2017-12-29T14:07:23.808Z,2.60
2017-12-29T14:09:52.835Z,3.70
2017-12-29T14:12:21.148Z,3.10
2017-12-29T14:14:49.471Z,2.33
2017-12-29T14:17:18.894Z,3.63
2017-12-29T14:19:47.237Z,2.83
2017-12-29T14:22:15.553Z,3.67
2017-12-29T14:24:43.928Z,2.57
2017-12-29T14:27:12.259Z,2.70
2017-12-29T14:29:40.576Z,2.93
2017-12-29T14:32:08.985Z,3.77
2017-12-29T14:34:38.056Z,3.37
2017-12-29T14:37:06.397Z,3.33
2017-12-29T14:39:34.815Z,3.23
2017-12-29T14:42:03.141Z,3.50
2017-12-29T14:44:31.507Z,3.10
2017-12-29T14:47:00.016Z,4.07
2017-12-29T14:49:28.345Z,3.90
2017-12-29T14:51:56.698Z,4.10
2017-12-29T14:54:25.160Z,4.40
2017-12-29T14:56:53.505Z,4.00
2017-12-29T14:59:21.815Z,3.53
2017-12-29T15:01:50.167Z,4.53
2017-12-29T15:04:19.395Z,3.63
2017-12-29T15:06:47.699Z,3.80
2017-12-29T15:09:16.051Z,4.30
2017-12-29T15:11:44.364Z,4.03
2017-12-29T15:14:12.672Z,4.10
2017-12-29T15:16:41.134Z,5.83
2017-12-29T15:19:09.444Z,4.57
2017-12-29T15:21:38.541Z,4.27
2017-12-29T15:24:07.032Z,4.40
2017-12-29T15:26:35.524Z,4.67
2017-12-29T15:29:04.641Z,5.10
2017-12-29T15:31:33.639Z,4.40
2017-12-29T15:34:02.666Z,4.50
2017-12-29T15:36:31.023Z,4.70
2017-12-29T15:38:59.925Z,4.20
2017-12-29T15:41:28.445Z,3.83
2017-12-29T15:43:57.163Z,4.70
2017-12-29T15:46:25.652Z,5.73
2017-12-29T15:48:53.960Z,4.90
2017-12-29T15:51:26.461Z,5.40
2017-12-29T15:53:54.792Z,6.87
2017-12-29T15:56:23.153Z,6.90
2017-12-29T15:58:51.613Z,6.80
2017-12-29T16:01:35.483Z,7.10
2017-12-29T16:04:03.873Z,6.10
2017-12-29T16:06:32.228Z,5.97
2017-12-29T16:09:00.597Z,5.90
2017-12-29T16:11:28.984Z,5.70
2017-12-29T16:13:57.291Z,6.70
2017-12-29T16:16:25.591Z,5.90
2017-12-29T16:18:54.001Z,6.43
2017-12-29T16:21:22.369Z,9.83
2017-12-29T16:23:50.713Z,10.40
2017-12-29T16:26:19.129Z,5.60
2017-12-29T16:28:47.494Z,10.20
2017-12-29T16:31:15.821Z,6.47
2017-12-29T16:33:44.347Z,5.70
2017-12-29T16:36:12.713Z,6.70
2017-12-29T16:38:41.801Z,6.70
2017-12-29T16:41:10.229Z,10.40
2017-12-29T16:43:38.609Z,5.40
2017-12-29T16:46:06.998Z,5.43
2017-12-29T16:48:35.540Z,4.73
2017-12-29T16:51:04.593Z,4.40
2017-12-29T16:53:36.844Z,5.80
2017-12-29T16:56:05.206Z,4.23
2017-12-29T16:58:34.325Z,5.37
2017-12-29T17:01:03.301Z,4.63
2017-12-29T17:03:31.662Z,5.13
2017-12-29T17:05:59.975Z,6.33
2017-12-29T17:08:29.136Z,5.10
2017-12-29T17:10:58.016Z,5.40
2017-12-29T17:13:26.450Z,4.40
2017-12-29T17:15:56.553Z,5.87
2017-12-29T17:18:25.670Z,4.60
2017-12-29T17:20:54.734Z,5.77
2017-12-29T17:23:23.779Z,4.90
2017-12-29T17:25:52.940Z,3.97
2017-12-29T17:28:21.841Z,3.13
2017-12-29T17:30:50.785Z,3.28
2017-12-29T17:33:19.364Z,3.97
2017-12-29T17:35:47.717Z,3.10
2017-12-29T17:38:16.752Z,2.67
2017-12-29T17:40:45.631Z,2.80
2017-12-29T17:43:14.842Z,3.43
2017-12-29T17:45:43.428Z,4.20
2017-12-29T17:48:12.201Z,3.70
2017-12-29T17:50:41.482Z,3.55
2017-12-29T17:53:10.497Z,3.80
2017-12-29T17:55:39.467Z,4.17
2017-12-29T17:58:08.545Z,3.83
2017-12-29T18:00:37.753Z,5.43
2017-12-29T18:03:06.190Z,4.18
2017-12-29T18:05:34.992Z,3.58
2017-12-29T18:08:04.196Z,4.68
2017-12-29T18:10:33.148Z,4.10
2017-12-29T18:13:02.283Z,4.85
2017-12-29T18:15:31.186Z,3.47
2017-12-29T18:17:59.706Z,4.18
2017-12-29T18:20:28.151Z,4.07
2017-12-29T18:22:57.062Z,3.95
2017-12-29T18:25:26.299Z,3.77
2017-12-29T18:27:55.085Z,5.03
2017-12-29T18:30:24.287Z,3.90
2017-12-29T18:32:53.416Z,4.22
2017-12-29T18:35:21.838Z,5.25
2017-12-29T18:37:50.806Z,4.95
2017-12-29T18:40:19.886Z,5.20
2017-12-29T18:42:49.168Z,3.53
2017-12-29T18:45:17.887Z,4.18
2017-12-29T18:47:46.298Z,4.17
2017-12-29T18:50:16.142Z,3.95
2017-12-29T18:52:44.545Z,6.05
2017-12-29T18:55:13.807Z,4.32
2017-12-29T18:57:46.019Z,5.62
2017-12-29T19:00:15.227Z,5.57
2017-12-29T19:02:44.223Z,6.30
2017-12-29T19:05:13.369Z,4.18
2017-12-29T19:07:42.389Z,4.32
2017-12-29T19:10:10.754Z,6.10
2017-12-29T19:12:39.612Z,4.62
2017-12-29T19:15:09.722Z,8.07
2017-12-29T19:17:38.814Z,6.97
2017-12-29T19:20:08.795Z,4.55
2017-12-29T19:22:37.967Z,5.62
2017-12-29T19:25:07.894Z,6.25
2017-12-29T19:27:36.463Z,6.25
2017-12-29T19:30:05.118Z,5.85
2017-12-29T19:32:34.323Z,6.15
2017-12-29T19:35:03.307Z,6.27
2017-12-29T19:37:32.372Z,7.28
2017-12-29T19:40:01.819Z,5.95
2017-12-29T19:42:30.578Z,5.35
2017-12-29T19:44:59.814Z,7.00
2017-12-29T19:47:28.667Z,7.22
2017-12-29T19:49:57.047Z,6.50
2017-12-29T19:52:26.295Z,5.97
2017-12-29T19:54:55.312Z,5.93
2017-12-29T19:57:24.387Z,6.87
2017-12-29T19:59:53.454Z,6.90
2017-12-29T20:02:22.728Z,6.07
2017-12-29T20:04:51.763Z,4.07
2017-12-29T20:07:24.014Z,4.55
2017-12-29T20:09:53.114Z,5.00
2017-12-29T20:12:22.160Z,4.97
2017-12-29T20:14:50.770Z,3.93
2017-12-29T20:17:19.783Z,4.27
2017-12-29T20:19:48.689Z,4.45
2017-12-29T20:22:17.902Z,3.58
2017-12-29T20:24:46.846Z,3.90
2017-12-29T20:27:16.059Z,3.43
2017-12-29T20:29:44.507Z,4.17
2017-12-29T20:32:13.299Z,3.70
2017-12-29T20:34:42.506Z,4.35
2017-12-29T20:37:11.044Z,4.47
2017-12-29T20:39:39.810Z,4.82
2017-12-29T20:42:08.609Z,4.50
2017-12-29T20:44:38.026Z,4.85
2017-12-29T20:47:07.118Z,4.40
2017-12-29T20:49:36.961Z,4.50
2017-12-29T20:52:06.267Z,5.03
2017-12-29T20:54:37.634Z,5.07
2017-12-29T20:57:06.413Z,6.15
2017-12-29T20:59:37.319Z,5.97
2017-12-29T21:02:05.765Z,3.40
2017-12-29T21:04:34.922Z,4.30
2017-12-29T21:07:03.315Z,4.05
2017-12-29T21:09:32.265Z,3.97
2017-12-29T21:12:01.447Z,3.92
2017-12-29T21:14:30.560Z,6.40
2017-12-29T21:19:54.309Z,5.05
2017-12-29T21:22:23.050Z,4.28
2017-12-29T21:24:51.694Z,4.62
2017-12-29T21:27:20.527Z,3.58
2017-12-29T21:29:49.575Z,4.37
2017-12-29T21:32:18.620Z,4.23
2017-12-29T21:34:47.079Z,5.07
2017-12-29T21:37:16.129Z,3.80
2017-12-29T21:39:44.491Z,4.18
2017-12-29T21:42:13.415Z,3.83
2017-12-29T21:44:42.944Z,3.37
2017-12-29T21:47:12.761Z,4.00
2017-12-29T21:49:43.175Z,4.12
2017-12-29T21:52:12.791Z,4.30
2017-12-29T21:54:41.887Z,3.13
2017-12-29T21:57:10.690Z,2.70
2017-12-29T21:59:39.130Z,2.90
2017-12-29T22:02:07.513Z,2.73
2017-12-29T22:04:36.451Z,2.47
2017-12-29T22:07:04.911Z,2.35
2017-12-29T22:09:33.351Z,2.10
2017-12-29T22:12:02.124Z,2.00
2017-12-29T22:14:31.062Z,3.20
2017-12-29T22:16:59.550Z,2.40
2017-12-29T22:19:28.571Z,2.40
2017-12-29T22:21:57.671Z,2.47
2017-12-29T22:24:26.083Z,2.13
2017-12-29T22:26:54.919Z,2.00
2017-12-29T22:29:23.320Z,1.47
2017-12-29T22:31:53.299Z,1.70
2017-12-29T22:34:22.365Z,1.40
2017-12-29T22:36:51.407Z,2.00
2017-12-29T22:39:19.880Z,1.30
2017-12-29T22:41:48.860Z,1.65
2017-12-29T22:44:17.402Z,1.48
2017-12-29T22:46:46.237Z,1.63
2017-12-29T22:49:15.440Z,2.08
2017-12-29T22:51:44.526Z,1.80
2017-12-29T22:54:13.637Z,1.80
2017-12-29T22:56:42.710Z,1.85
2017-12-29T22:59:11.370Z,1.75
2017-12-29T23:01:39.974Z,1.65
2017-12-29T23:04:08.934Z,1.48
2017-12-29T23:06:37.307Z,2.03
2017-12-29T23:09:06.574Z,1.42
2017-12-29T23:11:35.527Z,1.50
2017-12-29T23:14:04.139Z,1.43
2017-12-29T23:16:32.916Z,1.48
2017-12-29T23:19:02.125Z,2.60
2017-12-29T23:21:31.935Z,1.92
2017-12-29T23:24:01.126Z,1.80
2017-12-29T23:26:30.068Z,1.80
2017-12-29T23:28:58.438Z,2.07
2017-12-29T23:31:27.594Z,1.52
2017-12-29T23:33:56.521Z,2.75
2017-12-29T23:36:25.566Z,2.50
2017-12-29T23:38:55.555Z,2.20
2017-12-29T23:41:24.300Z,1.77
2017-12-29T23:43:54.567Z,2.47
2017-12-29T23:46:23.386Z,2.05
2017-12-29T23:48:52.805Z,1.70
2017-12-29T23:51:21.621Z,1.95
2017-12-29T23:53:50.179Z,1.52
2017-12-29T23:56:19.252Z,2.47
2017-12-29T23:58:48.345Z,2.37
